createdAt,value
2022-12-20T00:00:21.559Z,67.39
2022-12-20T00:01:21.689Z,67.30
2022-12-20T00:02:21.958Z,67.16
2022-12-20T00:03:22.077Z,67.12
2022-12-20T00:04:22.074Z,67.05
2022-12-20T00:05:22.179Z,67.11
2022-12-20T00:06:22.323Z,67.12
2022-12-20T00:07:22.423Z,67.14
2022-12-20T00:08:22.532Z,67.13
2022-12-20T00:09:23.609Z,67.22
2022-12-20T00:10:22.752Z,67.17
2022-12-20T00:11:22.917Z,67.23
2022-12-20T00:12:23.063Z,67.22
2022-12-20T00:13:23.238Z,67.19
2022-12-20T00:14:23.394Z,67.09
2022-12-20T00:15:23.423Z,67.15
2022-12-20T00:16:23.499Z,67.16
2022-12-20T00:17:23.641Z,67.15
2022-12-20T00:18:23.720Z,67.18
2022-12-20T00:19:23.813Z,67.21
2022-12-20T00:20:23.913Z,67.36
2022-12-20T00:21:24.012Z,67.32
2022-12-20T00:22:24.201Z,67.38
2022-12-20T00:23:24.261Z,67.35
2022-12-20T00:24:26.580Z,67.36
2022-12-20T00:25:24.501Z,67.39
2022-12-20T00:26:24.599Z,67.35
2022-12-20T00:27:24.830Z,67.36
2022-12-20T00:28:24.853Z,67.41
2022-12-20T00:29:24.942Z,67.43
2022-12-20T00:30:25.074Z,67.39
2022-12-20T00:31:25.243Z,67.46
2022-12-20T00:32:25.307Z,67.46
2022-12-20T00:33:25.411Z,67.41
2022-12-20T00:34:25.600Z,67.38
2022-12-20T00:35:25.668Z,67.41
2022-12-20T00:36:25.814Z,67.45
2022-12-20T00:37:25.910Z,67.47
2022-12-20T00:38:26.018Z,67.46
2022-12-20T00:39:26.122Z,67.46
2022-12-20T00:40:26.277Z,67.46
2022-12-20T00:41:26.433Z,67.56
2022-12-20T00:42:26.527Z,67.61
2022-12-20T00:43:26.648Z,67.65
2022-12-20T00:44:26.781Z,67.67
2022-12-20T00:45:26.864Z,67.57
2022-12-20T00:46:27.077Z,67.64
2022-12-20T00:47:27.155Z,67.83
2022-12-20T00:48:27.263Z,67.78
2022-12-20T00:49:27.361Z,67.84
2022-12-20T00:50:27.481Z,67.86
2022-12-20T00:51:27.653Z,67.92
2022-12-20T00:52:27.717Z,67.95
2022-12-20T00:53:27.886Z,68.08
2022-12-20T00:54:28.020Z,68.08
2022-12-20T00:55:28.147Z,68.13
2022-12-20T00:56:28.248Z,68.23
2022-12-20T00:57:28.364Z,68.29
2022-12-20T00:58:28.497Z,68.36
2022-12-20T00:59:28.575Z,68.42
2022-12-20T01:00:28.765Z,68.51
2022-12-20T01:01:28.979Z,68.52
2022-12-20T01:02:29.190Z,68.56
2022-12-20T01:03:29.382Z,68.57
2022-12-20T01:04:29.253Z,68.63
2022-12-20T01:05:29.353Z,68.64
2022-12-20T01:06:29.519Z,68.72
2022-12-20T01:07:29.589Z,68.78
2022-12-20T01:08:29.718Z,68.82
2022-12-20T01:09:29.862Z,68.85
2022-12-20T01:10:29.900Z,68.88
2022-12-20T01:11:30.072Z,69.00
2022-12-20T01:12:30.121Z,69.11
2022-12-20T01:13:30.245Z,69.16
2022-12-20T01:14:30.427Z,69.18
2022-12-20T01:15:30.470Z,69.15
2022-12-20T01:16:30.740Z,69.23
2022-12-20T01:17:30.694Z,69.31
2022-12-20T01:18:30.873Z,69.41
2022-12-20T01:19:31.013Z,69.56
2022-12-20T01:20:31.103Z,69.70
2022-12-20T01:21:31.225Z,70.16
2022-12-20T01:22:31.317Z,70.14
2022-12-20T01:23:31.440Z,70.27
2022-12-20T01:24:31.524Z,70.44
2022-12-20T01:25:31.634Z,70.46
2022-12-20T01:26:31.786Z,70.43
2022-12-20T01:27:31.872Z,70.42
2022-12-20T01:28:31.975Z,70.51
2022-12-20T01:29:32.081Z,70.46
2022-12-20T01:30:32.184Z,70.48
2022-12-20T01:31:32.565Z,70.56
2022-12-20T01:32:32.401Z,70.53
2022-12-20T01:33:32.525Z,70.54
2022-12-20T01:34:32.634Z,70.66
2022-12-20T01:35:32.785Z,70.62
2022-12-20T01:36:32.934Z,70.65
2022-12-20T01:37:32.962Z,70.58
2022-12-20T01:38:33.151Z,70.57
2022-12-20T01:39:33.159Z,70.57
2022-12-20T01:40:33.254Z,70.52
2022-12-20T01:41:33.502Z,70.50
2022-12-20T01:42:33.533Z,70.63
2022-12-20T01:43:33.598Z,70.56
2022-12-20T01:44:33.720Z,70.52
2022-12-20T01:45:33.859Z,70.58
2022-12-20T01:46:34.067Z,70.54
2022-12-20T01:47:34.082Z,70.62
2022-12-20T01:48:34.232Z,70.66
2022-12-20T01:49:34.376Z,70.69
2022-12-20T01:50:34.471Z,70.61
2022-12-20T01:51:34.644Z,70.67
2022-12-20T01:52:34.696Z,70.69
2022-12-20T01:53:34.828Z,70.70
2022-12-20T01:54:34.964Z,70.69
2022-12-20T01:55:35.068Z,70.68
2022-12-20T01:56:35.245Z,70.69
2022-12-20T01:57:35.299Z,70.68
2022-12-20T01:58:35.412Z,70.66
2022-12-20T01:59:35.565Z,70.68
2022-12-20T02:00:35.628Z,70.69
2022-12-20T02:01:36.030Z,70.66
2022-12-20T02:02:35.944Z,70.71
2022-12-20T02:03:36.018Z,70.78
2022-12-20T02:04:36.124Z,70.81
2022-12-20T02:05:36.208Z,70.89
2022-12-20T02:06:36.372Z,70.89
2022-12-20T02:07:36.456Z,70.93
2022-12-20T02:08:36.677Z,71.03
2022-12-20T02:09:36.671Z,71.02
2022-12-20T02:10:36.784Z,71.02
2022-12-20T02:11:36.967Z,70.98
2022-12-20T02:12:37.034Z,71.00
2022-12-20T02:13:37.163Z,70.94
2022-12-20T02:14:37.335Z,70.92
2022-12-20T02:15:37.385Z,70.85
2022-12-20T02:16:37.626Z,70.90
2022-12-20T02:17:37.650Z,70.90
2022-12-20T02:18:37.747Z,70.86
2022-12-20T02:19:37.862Z,70.88
2022-12-20T02:20:37.975Z,70.96
2022-12-20T02:21:38.149Z,70.86
2022-12-20T02:22:38.258Z,70.88
2022-12-20T02:23:38.325Z,71.29
2022-12-20T02:24:38.435Z,71.52
2022-12-20T02:25:38.554Z,71.67
2022-12-20T02:26:38.741Z,71.64
2022-12-20T02:27:38.787Z,71.80
2022-12-20T02:28:38.922Z,71.78
2022-12-20T02:29:39.048Z,72.07
2022-12-20T02:30:39.156Z,72.31
2022-12-20T02:31:39.413Z,72.24
2022-12-20T02:32:39.398Z,72.27
2022-12-20T02:33:39.503Z,72.40
2022-12-20T02:34:39.702Z,73.28
2022-12-20T02:35:39.782Z,74.09
2022-12-20T02:36:39.961Z,74.15
2022-12-20T02:37:40.027Z,74.09
2022-12-20T02:38:40.139Z,74.22
2022-12-20T02:39:40.305Z,74.49
2022-12-20T02:40:40.371Z,74.63
2022-12-20T02:41:40.553Z,74.61
2022-12-20T02:42:40.663Z,74.59
2022-12-20T02:43:40.699Z,74.66
2022-12-20T02:44:40.805Z,75.15
2022-12-20T02:45:40.979Z,75.51
2022-12-20T02:46:41.250Z,75.18
2022-12-20T02:47:41.228Z,75.17
2022-12-20T02:48:41.386Z,74.98
2022-12-20T02:49:41.422Z,75.08
2022-12-20T02:50:41.576Z,75.05
2022-12-20T02:51:41.697Z,75.12
2022-12-20T02:52:42.784Z,75.14
2022-12-20T02:53:43.057Z,75.25
2022-12-20T02:54:45.160Z,75.04
2022-12-20T02:55:42.145Z,75.08
2022-12-20T02:56:42.208Z,74.98
2022-12-20T02:57:42.334Z,74.93
2022-12-20T02:58:42.422Z,74.90
2022-12-20T02:59:42.523Z,74.81
2022-12-20T03:00:42.634Z,74.55
2022-12-20T03:01:42.843Z,74.45
2022-12-20T03:02:43.053Z,74.51
2022-12-20T03:03:43.043Z,74.53
2022-12-20T03:04:43.104Z,74.27
2022-12-20T03:05:43.201Z,74.26
2022-12-20T03:06:43.304Z,74.52
2022-12-20T03:07:43.458Z,74.68
2022-12-20T03:08:43.545Z,74.55
2022-12-20T03:09:43.706Z,74.56
2022-12-20T03:10:43.772Z,74.56
2022-12-20T03:11:43.939Z,74.30
2022-12-20T03:12:44.045Z,74.29
2022-12-20T03:13:44.160Z,74.05
2022-12-20T03:14:44.276Z,74.02
2022-12-20T03:15:44.410Z,74.09
2022-12-20T03:16:44.600Z,73.93
2022-12-20T03:17:44.734Z,74.05
2022-12-20T03:18:44.812Z,74.10
2022-12-20T03:19:44.925Z,74.21
2022-12-20T03:20:45.045Z,74.36
2022-12-20T03:21:45.164Z,74.61
2022-12-20T03:22:45.291Z,74.74
2022-12-20T03:23:45.409Z,74.69
2022-12-20T03:24:45.556Z,74.70
2022-12-20T03:25:45.660Z,74.83
2022-12-20T03:26:45.756Z,74.66
2022-12-20T03:27:45.869Z,74.74
2022-12-20T03:28:46.017Z,74.67
2022-12-20T03:29:46.119Z,74.70
2022-12-20T03:30:46.287Z,74.63
2022-12-20T03:31:46.408Z,74.51
2022-12-20T03:32:46.453Z,74.45
2022-12-20T03:33:46.617Z,74.68
2022-12-20T03:34:46.671Z,75.25
2022-12-20T03:35:46.765Z,75.57
2022-12-20T03:36:46.931Z,76.16
2022-12-20T03:37:46.999Z,76.10
2022-12-20T03:38:47.106Z,76.29
2022-12-20T03:39:47.195Z,76.16
2022-12-20T03:40:47.320Z,76.01
2022-12-20T03:41:47.543Z,75.86
2022-12-20T03:42:47.572Z,75.84
2022-12-20T03:43:47.676Z,75.72
2022-12-20T03:44:47.895Z,75.56
2022-12-20T03:45:47.981Z,75.73
2022-12-20T03:46:48.147Z,76.13
2022-12-20T03:47:48.122Z,76.77
2022-12-20T03:48:48.258Z,77.62
2022-12-20T03:49:48.358Z,78.14
2022-12-20T03:50:48.456Z,78.39
2022-12-20T03:51:48.653Z,79.11
2022-12-20T03:52:48.714Z,79.53
2022-12-20T03:53:48.842Z,79.42
2022-12-20T03:54:48.957Z,79.35
2022-12-20T03:55:49.053Z,79.32
2022-12-20T03:56:49.270Z,79.41
2022-12-20T03:57:49.272Z,79.38
2022-12-20T03:58:49.385Z,79.54
2022-12-20T03:59:49.520Z,79.43
2022-12-20T04:00:49.618Z,79.56
2022-12-20T04:01:49.868Z,79.39
2022-12-20T04:02:50.101Z,79.21
2022-12-20T04:03:50.184Z,79.04
2022-12-20T04:04:50.134Z,78.76
2022-12-20T04:05:50.249Z,78.72
2022-12-20T04:06:50.445Z,78.71
2022-12-20T04:07:50.495Z,78.23
2022-12-20T04:08:50.590Z,78.26
2022-12-20T04:09:50.699Z,78.06
2022-12-20T04:10:50.798Z,77.93
2022-12-20T04:11:50.942Z,78.10
2022-12-20T04:12:51.103Z,77.77
2022-12-20T04:13:51.171Z,77.51
2022-12-20T04:14:51.310Z,77.36
2022-12-20T04:15:55.299Z,77.34
2022-12-20T04:16:52.591Z,77.21
2022-12-20T04:17:51.723Z,77.06
2022-12-20T04:18:51.822Z,76.64
2022-12-20T04:19:51.969Z,76.61
2022-12-20T04:20:52.155Z,76.55
2022-12-20T04:21:52.227Z,76.59
2022-12-20T04:22:52.269Z,76.47
2022-12-20T04:23:52.372Z,76.42
2022-12-20T04:24:52.539Z,76.39
2022-12-20T04:25:52.626Z,76.07
2022-12-20T04:26:52.819Z,75.96
2022-12-20T04:27:52.871Z,75.82
2022-12-20T04:28:52.972Z,75.74
2022-12-20T04:29:53.116Z,75.72
2022-12-20T04:30:53.264Z,75.72
2022-12-20T04:31:53.428Z,75.64
2022-12-20T04:32:53.426Z,75.28
2022-12-20T04:33:53.547Z,75.15
2022-12-20T04:34:53.643Z,75.21
2022-12-20T04:35:53.837Z,75.12
2022-12-20T04:36:53.954Z,75.07
2022-12-20T04:37:54.097Z,75.13
2022-12-20T04:38:54.166Z,74.90
2022-12-20T04:39:54.251Z,74.94
2022-12-20T04:40:54.426Z,74.77
2022-12-20T04:41:54.483Z,74.73
2022-12-20T04:42:54.601Z,74.70
2022-12-20T04:43:54.692Z,74.62
2022-12-20T04:44:54.782Z,74.63
2022-12-20T04:45:54.960Z,74.67
2022-12-20T04:46:55.131Z,74.58
2022-12-20T04:47:55.203Z,74.52
2022-12-20T04:48:57.710Z,74.39
2022-12-20T04:49:55.428Z,74.45
2022-12-20T04:50:55.521Z,74.45
2022-12-20T04:51:55.731Z,74.36
2022-12-20T04:52:55.728Z,74.19
2022-12-20T04:53:55.925Z,74.05
2022-12-20T04:54:56.040Z,74.11
2022-12-20T04:55:56.122Z,74.06
2022-12-20T04:56:56.305Z,73.89
2022-12-20T04:57:58.417Z,73.67
2022-12-20T04:58:57.500Z,73.75
2022-12-20T04:59:56.640Z,73.62
2022-12-20T05:00:56.788Z,73.62
2022-12-20T05:01:57.129Z,73.40
2022-12-20T05:02:57.157Z,73.31
2022-12-20T05:03:57.194Z,73.27
2022-12-20T05:04:57.223Z,73.31
2022-12-20T05:05:57.375Z,73.10
2022-12-20T05:06:57.560Z,73.10
2022-12-20T05:07:57.645Z,72.94
2022-12-20T05:08:57.788Z,72.84
2022-12-20T05:09:57.876Z,72.95
2022-12-20T05:10:57.957Z,72.80
2022-12-20T05:11:58.256Z,72.74
2022-12-20T05:12:58.235Z,72.57
2022-12-20T05:13:58.322Z,72.71
2022-12-20T05:14:58.525Z,72.70
2022-12-20T05:15:58.537Z,72.78
2022-12-20T05:16:58.687Z,72.72
2022-12-20T05:18:07.232Z,72.64
2022-12-20T05:19:06.061Z,72.64
2022-12-20T05:19:59.022Z,72.53
2022-12-20T05:20:59.129Z,72.40
2022-12-20T05:21:59.290Z,72.30
2022-12-20T05:22:59.422Z,72.21
2022-12-20T05:23:59.547Z,72.15
2022-12-20T05:24:59.797Z,72.07
2022-12-20T05:25:59.787Z,71.97
2022-12-20T05:27:00.024Z,71.88
2022-12-20T05:28:00.021Z,71.73
2022-12-20T05:29:00.153Z,71.63
2022-12-20T05:30:00.411Z,71.55
2022-12-20T05:31:00.416Z,71.41
2022-12-20T05:32:00.477Z,71.32
2022-12-20T05:33:00.645Z,71.31
2022-12-20T05:34:00.717Z,71.14
2022-12-20T05:35:00.875Z,71.11
2022-12-20T05:36:00.938Z,71.14
2022-12-20T05:37:01.111Z,71.17
2022-12-20T05:38:01.194Z,70.95
2022-12-20T05:39:04.373Z,71.06
2022-12-20T05:40:01.465Z,70.88
2022-12-20T05:41:01.591Z,70.83
2022-12-20T05:42:01.820Z,70.74
2022-12-20T05:43:01.836Z,70.78
2022-12-20T05:44:01.941Z,70.74
2022-12-20T05:45:02.061Z,70.57
2022-12-20T05:46:02.237Z,70.56
2022-12-20T05:47:02.404Z,70.60
2022-12-20T05:48:02.405Z,70.47
2022-12-20T05:49:02.617Z,70.44
2022-12-20T05:50:02.614Z,70.44
2022-12-20T05:51:02.773Z,70.38
2022-12-20T05:52:02.877Z,70.31
2022-12-20T05:53:09.096Z,70.37
2022-12-20T05:54:04.077Z,70.40
2022-12-20T05:55:03.238Z,70.30
2022-12-20T05:56:03.406Z,70.18
2022-12-20T05:57:03.490Z,69.97
2022-12-20T05:58:03.520Z,69.90
2022-12-20T05:59:03.726Z,69.92
2022-12-20T06:00:03.817Z,69.82
2022-12-20T06:01:03.859Z,69.69
2022-12-20T06:02:04.113Z,69.61
2022-12-20T06:03:04.355Z,69.68
2022-12-20T06:04:04.254Z,69.90
2022-12-20T06:05:04.342Z,69.84
2022-12-20T06:06:10.231Z,69.68
2022-12-20T06:07:05.601Z,69.59
2022-12-20T06:08:04.701Z,69.44
2022-12-20T06:09:04.840Z,69.37
2022-12-20T06:10:04.911Z,69.37
2022-12-20T06:11:05.029Z,69.28
2022-12-20T06:12:05.390Z,69.27
2022-12-20T06:13:05.325Z,69.22
2022-12-20T06:14:05.439Z,69.27
2022-12-20T06:15:05.576Z,69.27
2022-12-20T06:16:05.690Z,69.28
2022-12-20T06:17:05.824Z,69.16
2022-12-20T06:18:05.974Z,69.09
2022-12-20T06:19:06.210Z,69.07
2022-12-20T06:20:06.162Z,69.04
2022-12-20T06:21:06.283Z,69.07
2022-12-20T06:22:06.434Z,69.03
2022-12-20T06:23:06.546Z,68.99
2022-12-20T06:24:06.684Z,68.93
2022-12-20T06:25:06.784Z,68.95
2022-12-20T06:26:06.926Z,68.86
2022-12-20T06:27:07.051Z,68.93
2022-12-20T06:28:07.197Z,69.03
2022-12-20T06:29:07.285Z,69.04
2022-12-20T06:30:07.439Z,69.05
2022-12-20T06:31:07.671Z,69.13
2022-12-20T06:32:07.758Z,69.24
2022-12-20T06:33:07.791Z,69.10
2022-12-20T06:34:08.010Z,69.13
2022-12-20T06:35:08.054Z,69.17
2022-12-20T06:36:08.159Z,69.37
2022-12-20T06:37:08.281Z,69.46
2022-12-20T06:38:08.559Z,69.41
2022-12-20T06:39:09.937Z,69.35
2022-12-20T06:40:08.701Z,69.39
2022-12-20T06:41:08.755Z,69.45
2022-12-20T06:42:08.871Z,69.27
2022-12-20T06:43:08.976Z,69.26
2022-12-20T06:44:09.086Z,69.16
2022-12-20T06:45:09.309Z,69.24
2022-12-20T06:46:09.329Z,69.07
2022-12-20T06:47:09.484Z,69.01
2022-12-20T06:48:09.680Z,68.99
2022-12-20T06:49:09.669Z,68.97
2022-12-20T06:50:09.780Z,68.96
2022-12-20T06:51:09.875Z,68.96
2022-12-20T06:52:10.057Z,68.98
2022-12-20T06:53:10.231Z,68.91
2022-12-20T06:54:10.353Z,68.93
2022-12-20T06:55:10.432Z,68.97
2022-12-20T06:56:10.520Z,69.00
2022-12-20T06:57:10.681Z,69.00
2022-12-20T06:58:10.825Z,69.10
2022-12-20T06:59:11.039Z,69.10
2022-12-20T07:00:10.981Z,69.23
2022-12-20T07:01:11.204Z,69.39
2022-12-20T07:02:11.390Z,69.34
2022-12-20T07:03:11.663Z,69.42
2022-12-20T07:04:11.515Z,69.38
2022-12-20T07:05:11.630Z,69.40
2022-12-20T07:06:11.754Z,69.41
2022-12-20T07:07:11.875Z,69.56
2022-12-20T07:08:11.994Z,69.48
2022-12-20T07:09:12.153Z,69.41
2022-12-20T07:10:12.207Z,69.36
2022-12-20T07:11:12.353Z,69.44
2022-12-20T07:12:12.435Z,69.36
2022-12-20T07:13:12.702Z,69.45
2022-12-20T07:14:12.771Z,69.42
2022-12-20T07:15:12.821Z,69.49
2022-12-20T07:16:13.043Z,69.47
2022-12-20T07:17:13.110Z,69.45
2022-12-20T07:18:13.187Z,69.59
2022-12-20T07:19:13.324Z,69.53
2022-12-20T07:20:14.583Z,69.43
2022-12-20T07:21:13.532Z,69.38
2022-12-20T07:22:13.660Z,69.35
2022-12-20T07:23:13.868Z,69.31
2022-12-20T07:24:13.947Z,69.29
2022-12-20T07:25:14.000Z,69.20
2022-12-20T07:26:14.165Z,69.17
2022-12-20T07:27:14.285Z,69.14
2022-12-20T07:28:14.434Z,69.02
2022-12-20T07:29:15.941Z,68.95
2022-12-20T07:30:14.740Z,68.98
2022-12-20T07:31:14.798Z,69.08
2022-12-20T07:32:14.974Z,69.09
2022-12-20T07:33:15.071Z,69.17
2022-12-20T07:34:15.251Z,69.11
2022-12-20T07:35:15.290Z,69.14
2022-12-20T07:36:15.490Z,69.14
2022-12-20T07:37:15.515Z,69.10
2022-12-20T07:38:15.678Z,69.03
2022-12-20T07:39:15.753Z,68.97
2022-12-20T07:40:15.892Z,68.90
2022-12-20T07:41:15.963Z,68.92
2022-12-20T07:42:16.151Z,68.83
2022-12-20T07:43:16.209Z,68.80
2022-12-20T07:44:16.337Z,68.82
2022-12-20T07:45:16.438Z,68.80
2022-12-20T07:46:16.601Z,68.73
2022-12-20T07:47:16.686Z,68.71
2022-12-20T07:48:21.624Z,68.68
2022-12-20T07:49:17.941Z,68.88
2022-12-20T07:50:17.046Z,68.91
2022-12-20T07:51:17.155Z,68.91
2022-12-20T07:52:17.288Z,68.81
2022-12-20T07:53:17.434Z,68.72
2022-12-20T07:54:17.635Z,68.78
2022-12-20T07:55:17.670Z,68.76
2022-12-20T07:56:17.775Z,68.77
2022-12-20T07:57:18.016Z,68.76
2022-12-20T07:58:17.999Z,68.62
2022-12-20T07:59:18.153Z,68.54
2022-12-20T08:00:18.282Z,68.57
2022-12-20T08:01:18.506Z,68.47
2022-12-20T08:02:18.599Z,68.49
2022-12-20T08:03:18.737Z,68.50
2022-12-20T08:04:18.725Z,68.43
2022-12-20T08:05:18.887Z,68.48
2022-12-20T08:06:19.045Z,68.46
2022-12-20T08:07:19.118Z,68.47
2022-12-20T08:08:19.221Z,68.50
2022-12-20T08:09:19.321Z,68.54
2022-12-20T08:10:19.594Z,68.70
2022-12-20T08:11:19.594Z,68.61
2022-12-20T08:12:19.759Z,68.52
2022-12-20T08:13:19.799Z,68.54
2022-12-20T08:14:19.913Z,68.47
2022-12-20T08:15:20.060Z,68.46
2022-12-20T08:16:20.282Z,68.51
2022-12-20T08:17:20.372Z,68.39
2022-12-20T08:18:20.440Z,68.50
2022-12-20T08:19:20.550Z,68.47
2022-12-20T08:20:20.777Z,68.37
2022-12-20T08:21:20.799Z,68.25
2022-12-20T08:22:20.908Z,68.27
2022-12-20T08:23:21.022Z,68.23
2022-12-20T08:24:21.141Z,68.25
2022-12-20T08:25:21.347Z,68.39
2022-12-20T08:26:21.392Z,68.27
2022-12-20T08:27:21.531Z,68.26
2022-12-20T08:28:21.631Z,68.30
2022-12-20T08:29:21.745Z,68.28
2022-12-20T08:30:21.898Z,68.20
2022-12-20T08:31:22.079Z,68.21
2022-12-20T08:32:22.110Z,68.16
2022-12-20T08:33:22.282Z,68.09
2022-12-20T08:34:22.463Z,68.36
2022-12-20T08:35:22.491Z,68.26
2022-12-20T08:36:22.599Z,68.26
2022-12-20T08:37:22.743Z,68.28
2022-12-20T08:38:22.844Z,68.43
2022-12-20T08:39:22.941Z,68.29
2022-12-20T08:40:23.084Z,68.49
2022-12-20T08:41:23.184Z,68.60
2022-12-20T08:42:23.443Z,68.57
2022-12-20T08:43:23.440Z,68.53
2022-12-20T08:44:23.589Z,68.57
2022-12-20T08:45:23.713Z,68.72
2022-12-20T08:46:23.835Z,68.64
2022-12-20T08:47:23.934Z,68.76
2022-12-20T08:48:24.043Z,68.80
2022-12-20T08:49:24.158Z,68.71
2022-12-20T08:50:24.367Z,68.56
2022-12-20T08:51:24.506Z,68.71
2022-12-20T08:52:24.531Z,68.81
2022-12-20T08:53:24.631Z,68.82
2022-12-20T08:54:24.900Z,68.93
2022-12-20T08:55:29.321Z,69.07
2022-12-20T08:56:24.981Z,69.44
2022-12-20T08:57:25.087Z,69.43
2022-12-20T08:58:25.192Z,69.65
2022-12-20T08:59:25.322Z,69.80
2022-12-20T09:00:25.512Z,69.49
2022-12-20T09:01:25.652Z,69.59
2022-12-20T09:02:25.915Z,69.83
2022-12-20T09:03:25.864Z,69.63
2022-12-20T09:04:25.969Z,69.80
2022-12-20T09:05:26.118Z,69.86
2022-12-20T09:06:26.278Z,70.07
2022-12-20T09:07:26.366Z,70.03
2022-12-20T09:08:26.479Z,70.25
2022-12-20T09:09:26.669Z,70.41
2022-12-20T09:10:26.722Z,70.65
2022-12-20T09:11:26.842Z,70.89
2022-12-20T09:12:26.971Z,71.75
2022-12-20T09:13:27.191Z,71.45
2022-12-20T09:14:27.277Z,71.85
2022-12-20T09:15:27.434Z,71.91
2022-12-20T09:16:27.613Z,71.63
2022-12-20T09:17:27.605Z,71.76
2022-12-20T09:18:27.744Z,71.85
2022-12-20T09:19:27.846Z,71.61
2022-12-20T09:20:28.011Z,71.70
2022-12-20T09:21:28.157Z,71.62
2022-12-20T09:22:28.215Z,71.83
2022-12-20T09:23:28.334Z,71.54
2022-12-20T09:24:28.462Z,71.41
2022-12-20T09:25:28.609Z,71.37
2022-12-20T09:26:28.717Z,71.46
2022-12-20T09:27:28.826Z,71.60
2022-12-20T09:28:28.964Z,71.37
2022-12-20T09:29:35.239Z,71.36
2022-12-20T09:30:30.272Z,71.30
2022-12-20T09:31:29.475Z,71.16
2022-12-20T09:32:29.511Z,71.28
2022-12-20T09:33:29.631Z,71.11
2022-12-20T09:34:29.856Z,71.03
2022-12-20T09:35:29.913Z,71.07
2022-12-20T09:36:30.048Z,70.94
2022-12-20T09:37:30.120Z,70.77
2022-12-20T09:38:30.261Z,71.07
2022-12-20T09:39:30.419Z,70.85
2022-12-20T09:40:30.474Z,70.94
2022-12-20T09:41:30.592Z,70.86
2022-12-20T09:42:30.743Z,70.90
2022-12-20T09:43:30.898Z,71.09
2022-12-20T09:44:30.960Z,70.88
2022-12-20T09:45:31.079Z,70.80
2022-12-20T09:46:31.211Z,70.65
2022-12-20T09:47:31.322Z,70.76
2022-12-20T09:48:31.419Z,70.76
2022-12-20T09:49:31.549Z,70.67
2022-12-20T09:50:31.680Z,70.28
2022-12-20T09:51:31.920Z,70.36
2022-12-20T09:52:31.888Z,70.51
2022-12-20T09:53:32.104Z,70.39
2022-12-20T09:54:32.164Z,70.39
2022-12-20T09:55:32.269Z,70.21
2022-12-20T09:56:32.324Z,70.32
2022-12-20T09:57:32.428Z,70.25
2022-12-20T09:58:32.526Z,69.96
2022-12-20T09:59:38.411Z,69.95
2022-12-20T10:00:33.768Z,70.13
2022-12-20T10:01:38.705Z,70.23
2022-12-20T10:03:34.299Z,70.28
2022-12-20T10:04:33.440Z,70.20
2022-12-20T10:05:38.946Z,70.40
2022-12-20T10:06:34.484Z,70.42
2022-12-20T10:07:33.584Z,70.30
2022-12-20T10:08:33.686Z,70.45
2022-12-20T10:09:33.839Z,70.54
2022-12-20T10:10:33.991Z,70.75
2022-12-20T10:11:40.648Z,70.66
2022-12-20T10:12:35.186Z,71.05
2022-12-20T10:13:34.285Z,70.87
2022-12-20T10:14:34.484Z,70.93
2022-12-20T10:15:34.537Z,70.66
2022-12-20T10:16:34.709Z,70.83
2022-12-20T10:17:34.776Z,70.75
2022-12-20T10:18:34.879Z,70.81
2022-12-20T10:19:35.120Z,70.76
2022-12-20T10:20:35.087Z,70.72
2022-12-20T10:21:35.186Z,70.84
2022-12-20T10:22:35.338Z,70.69
2022-12-20T10:23:35.524Z,70.58
2022-12-20T10:24:35.541Z,70.44
2022-12-20T10:25:35.639Z,70.60
2022-12-20T10:26:35.741Z,70.38
2022-12-20T10:27:35.870Z,70.29
2022-12-20T10:28:35.964Z,70.39
2022-12-20T10:29:36.111Z,70.37
2022-12-20T10:30:36.158Z,70.52
2022-12-20T10:31:36.372Z,70.54
2022-12-20T10:32:36.394Z,70.41
2022-12-20T10:33:36.520Z,70.56
2022-12-20T10:34:39.867Z,70.36
2022-12-20T10:35:37.736Z,70.40
2022-12-20T10:36:36.822Z,70.38
2022-12-20T10:37:37.659Z,70.29
2022-12-20T10:38:37.088Z,70.34
2022-12-20T10:39:37.275Z,70.60
2022-12-20T10:41:01.968Z,70.28
2022-12-20T10:41:38.448Z,70.16
2022-12-20T10:42:37.580Z,70.45
2022-12-20T10:43:37.746Z,70.22
2022-12-20T10:44:37.876Z,70.16
2022-12-20T10:45:38.015Z,70.13
2022-12-20T10:46:38.243Z,70.07
2022-12-20T10:47:38.306Z,69.94
2022-12-20T10:48:38.390Z,70.14
2022-12-20T10:49:38.538Z,70.11
2022-12-20T10:50:38.655Z,69.85
2022-12-20T10:51:38.776Z,69.83
2022-12-20T10:52:38.868Z,69.66
2022-12-20T10:53:38.984Z,69.50
2022-12-20T10:54:39.095Z,69.57
2022-12-20T10:55:39.217Z,69.55
2022-12-20T10:56:39.355Z,69.54
2022-12-20T10:57:39.483Z,69.21
2022-12-20T10:58:39.628Z,69.30
2022-12-20T10:59:39.742Z,69.50
2022-12-20T11:00:39.878Z,69.10
2022-12-20T11:01:40.017Z,69.00
2022-12-20T11:02:42.330Z,68.96
2022-12-20T11:03:40.319Z,68.89
2022-12-20T11:04:40.326Z,68.87
2022-12-20T11:05:40.437Z,68.81
2022-12-20T11:06:40.560Z,68.56
2022-12-20T11:07:43.597Z,68.73
2022-12-20T11:08:51.187Z,68.63
2022-12-20T11:09:42.064Z,68.63
2022-12-20T11:10:41.028Z,68.87
2022-12-20T11:11:41.138Z,69.21
2022-12-20T11:12:41.269Z,69.26
2022-12-20T11:13:41.385Z,69.53
2022-12-20T11:14:41.461Z,69.56
2022-12-20T11:15:41.669Z,69.68
2022-12-20T11:16:41.824Z,69.87
2022-12-20T11:17:41.844Z,70.04
2022-12-20T11:18:41.966Z,70.22
2022-12-20T11:19:42.063Z,70.31
2022-12-20T11:20:42.235Z,70.60
2022-12-20T11:21:42.284Z,70.64
2022-12-20T11:22:42.425Z,70.80
2022-12-20T11:23:42.513Z,70.97
2022-12-20T11:24:42.615Z,71.14
2022-12-20T11:25:42.850Z,71.20
2022-12-20T11:26:42.867Z,71.34
2022-12-20T11:27:42.957Z,71.48
2022-12-20T11:28:43.058Z,71.58
2022-12-20T11:29:43.187Z,71.63
2022-12-20T11:30:43.327Z,71.73
2022-12-20T11:31:43.482Z,71.82
2022-12-20T11:32:48.693Z,71.90
2022-12-20T11:33:44.691Z,72.24
2022-12-20T11:34:43.790Z,72.36
2022-12-20T11:35:43.891Z,72.50
2022-12-20T11:36:44.063Z,73.01
2022-12-20T11:37:44.215Z,73.70
2022-12-20T11:38:44.236Z,74.29
2022-12-20T11:39:44.348Z,74.87
2022-12-20T11:40:44.471Z,75.42
2022-12-20T11:41:44.573Z,76.64
2022-12-20T11:42:44.668Z,77.13
2022-12-20T11:44:22.746Z,77.72
2022-12-20T11:44:53.326Z,78.01
2022-12-20T11:45:46.179Z,78.94
2022-12-20T11:46:45.276Z,79.80
2022-12-20T11:47:45.344Z,80.08
2022-12-20T11:48:45.469Z,81.48
2022-12-20T11:49:45.555Z,81.71
2022-12-20T11:50:45.684Z,81.48
2022-12-20T11:51:45.849Z,81.31
2022-12-20T11:52:45.905Z,81.57
2022-12-20T11:53:46.014Z,81.35
2022-12-20T11:54:46.137Z,81.06
2022-12-20T11:55:46.340Z,81.17
2022-12-20T11:56:46.403Z,81.13
2022-12-20T11:58:09.473Z,80.80
2022-12-20T11:58:47.657Z,80.77
2022-12-20T11:59:46.767Z,81.10
2022-12-20T12:00:46.868Z,80.65
2022-12-20T12:01:47.108Z,81.28
2022-12-20T12:02:51.618Z,81.51
2022-12-20T12:03:48.221Z,81.49
2022-12-20T12:04:47.367Z,81.78
2022-12-20T12:05:47.577Z,82.66
2022-12-20T12:06:47.626Z,82.77
2022-12-20T12:07:47.720Z,83.54
2022-12-20T12:08:47.840Z,84.01
2022-12-20T12:09:47.958Z,84.39
2022-12-20T12:10:48.072Z,84.32
2022-12-20T12:12:49.304Z,85.72
2022-12-20T12:13:48.452Z,86.00
2022-12-20T12:14:48.634Z,86.08
2022-12-20T12:15:48.689Z,86.15
2022-12-20T12:16:49.015Z,86.22
2022-12-20T12:17:48.980Z,86.47
2022-12-20T12:18:49.087Z,86.17
2022-12-20T12:19:49.297Z,85.73
2022-12-20T12:20:49.351Z,85.57
2022-12-20T12:21:49.561Z,85.20
2022-12-20T12:22:49.559Z,84.66
2022-12-20T12:23:49.730Z,85.00
2022-12-20T12:24:49.843Z,84.27
2022-12-20T12:25:49.999Z,83.81
2022-12-20T12:26:50.141Z,83.38
2022-12-20T12:27:50.225Z,83.30
2022-12-20T12:28:50.312Z,82.85
2022-12-20T12:29:50.405Z,82.90
2022-12-20T12:30:50.546Z,82.22
2022-12-20T12:31:50.758Z,82.32
2022-12-20T12:32:50.858Z,81.90
2022-12-20T12:33:50.936Z,81.38
2022-12-20T12:34:51.040Z,81.55
2022-12-20T12:35:51.304Z,81.22
2022-12-20T12:36:51.345Z,80.54
2022-12-20T12:37:51.459Z,80.83
2022-12-20T12:38:55.583Z,80.32
2022-12-20T12:39:52.665Z,80.94
2022-12-20T12:40:52.902Z,80.19
2022-12-20T12:41:52.065Z,80.27
2022-12-20T12:42:52.075Z,79.92
2022-12-20T12:43:52.200Z,79.81
2022-12-20T12:44:52.299Z,80.16
2022-12-20T12:45:52.476Z,80.12
2022-12-20T12:46:52.552Z,80.30
2022-12-20T12:47:52.694Z,79.38
2022-12-20T12:48:52.808Z,79.45
2022-12-20T12:49:52.922Z,79.08
2022-12-20T12:50:53.090Z,78.84
2022-12-20T12:51:53.269Z,78.99
2022-12-20T12:52:53.329Z,78.53
2022-12-20T12:53:53.428Z,78.24
2022-12-20T12:54:53.553Z,78.68
2022-12-20T12:56:07.486Z,78.34